createdAt,value
2022-08-30T00:03:18.976Z,13.727722
2022-08-30T00:06:43.976Z,13.727722
2022-08-30T00:10:09.151Z,13.768005
2022-08-30T00:13:34.320Z,13.778076
2022-08-30T00:16:59.494Z,13.747864
2022-08-30T00:20:24.665Z,13.667297
2022-08-30T00:23:49.895Z,13.596802
2022-08-30T00:27:15.070Z,13.596802
2022-08-30T00:30:40.277Z,13.566589
2022-08-30T00:34:05.409Z,13.546448
2022-08-30T00:37:30.616Z,13.506165
2022-08-30T00:40:55.800Z,13.516235
2022-08-30T00:44:20.978Z,13.516235
2022-08-30T00:47:46.175Z,13.506165
2022-08-30T00:51:11.373Z,13.486023
2022-08-30T00:54:36.562Z,13.455811
2022-08-30T00:58:01.741Z,13.486023
2022-08-30T01:01:26.938Z,13.486023
2022-08-30T01:04:52.144Z,13.455811
2022-08-30T01:08:17.330Z,13.405457
2022-08-30T01:11:42.524Z,13.405457
2022-08-30T01:15:07.733Z,13.415527
2022-08-30T01:18:32.922Z,13.44574
2022-08-30T01:21:58.097Z,13.435669
2022-08-30T01:25:23.290Z,13.355103
2022-08-30T01:28:48.476Z,13.385315
2022-08-30T01:32:13.660Z,13.355103
2022-08-30T01:35:38.838Z,13.334961
2022-08-30T01:39:04.027Z,13.375244
2022-08-30T01:42:29.227Z,13.355103
2022-08-30T01:45:54.522Z,13.355103
2022-08-30T01:49:23.150Z,13.32489
2022-08-30T01:52:44.794Z,13.284607
2022-08-30T01:56:09.963Z,13.264465
2022-08-30T01:59:35.166Z,13.284607
2022-08-30T02:03:00.357Z,13.284607
2022-08-30T02:06:25.551Z,13.32489
2022-08-30T02:09:50.724Z,13.304749
2022-08-30T02:13:15.997Z,13.294678
2022-08-30T02:16:41.135Z,13.284607
2022-08-30T02:20:06.324Z,13.264465
2022-08-30T02:23:31.514Z,13.234253
2022-08-30T02:26:56.695Z,13.234253
2022-08-30T02:30:21.930Z,13.254395
2022-08-30T02:33:47.087Z,13.254395
2022-08-30T02:37:12.286Z,13.294678
2022-08-30T02:40:38.283Z,13.304749
2022-08-30T02:44:02.691Z,13.234253
2022-08-30T02:47:27.891Z,13.224182
2022-08-30T02:50:53.087Z,13.204041
2022-08-30T02:54:18.283Z,13.173828
2022-08-30T02:57:43.483Z,13.173828
2022-08-30T03:01:08.743Z,13.173828
2022-08-30T03:04:33.883Z,13.224182
2022-08-30T03:07:59.089Z,13.224182
2022-08-30T03:11:24.280Z,13.204041
2022-08-30T03:14:49.478Z,13.19397
2022-08-30T03:18:14.690Z,13.143616
2022-08-30T03:21:39.855Z,13.153687
2022-08-30T03:25:05.072Z,13.143616
2022-08-30T03:28:30.262Z,13.153687
2022-08-30T03:31:55.450Z,13.103333
2022-08-30T03:35:20.639Z,13.07312
2022-08-30T03:38:45.854Z,13.052979
2022-08-30T03:42:11.046Z,13.042908
2022-08-30T03:45:36.272Z,13.042908
2022-08-30T03:49:01.422Z,13.032837
2022-08-30T03:52:26.579Z,13.012695
2022-08-30T03:55:51.748Z,13.012695
2022-08-30T03:59:16.959Z,13.012695
2022-08-30T04:02:42.250Z,12.972412
2022-08-30T04:06:07.329Z,12.962341
2022-08-30T04:09:32.503Z,12.972412
2022-08-30T04:12:57.688Z,12.962341
2022-08-30T04:16:22.889Z,12.962341
2022-08-30T04:19:48.084Z,12.952271
2022-08-30T04:23:13.315Z,12.871704
2022-08-30T04:26:38.441Z,12.901917
2022-08-30T04:30:03.661Z,12.891846
2022-08-30T04:33:28.876Z,12.901917
2022-08-30T04:36:54.059Z,12.851562
2022-08-30T04:40:19.295Z,12.851562
2022-08-30T04:43:44.434Z,12.861633
2022-08-30T04:47:09.598Z,12.922058
2022-08-30T04:50:34.786Z,12.962341
2022-08-30T04:53:59.982Z,12.972412
2022-08-30T04:57:25.187Z,12.952271
2022-08-30T05:00:50.553Z,13.012695
2022-08-30T05:04:15.711Z,13.032837
2022-08-30T05:07:40.879Z,13.042908
2022-08-30T05:11:06.063Z,13.103333
2022-08-30T05:14:31.250Z,13.113403
2022-08-30T05:17:56.410Z,13.143616
2022-08-30T05:21:21.604Z,13.204041
2022-08-30T05:24:46.782Z,13.294678
2022-08-30T05:28:11.966Z,13.385315
2022-08-30T05:31:37.187Z,13.506165
2022-08-30T05:35:02.322Z,13.627014
2022-08-30T05:38:27.499Z,13.727722
2022-08-30T05:41:52.649Z,13.818359
2022-08-30T05:45:17.810Z,13.94928
2022-08-30T05:48:42.984Z,14.090271
2022-08-30T05:52:08.147Z,14.211121
2022-08-30T05:55:33.289Z,14.281616
2022-08-30T05:58:58.466Z,14.422607
2022-08-30T06:02:23.712Z,14.58374
2022-08-30T06:05:48.835Z,14.724731
2022-08-30T06:09:14.045Z,14.875793
2022-08-30T06:12:39.276Z,15.006714
2022-08-30T06:16:04.488Z,15.187988
2022-08-30T06:19:29.619Z,15.318909
2022-08-30T06:22:54.790Z,15.439758
2022-08-30T06:26:20.031Z,15.540466
2022-08-30T06:29:45.159Z,15.651245
2022-08-30T06:33:10.336Z,15.741882
2022-08-30T06:36:35.504Z,15.802307
2022-08-30T06:40:00.699Z,15.822449
2022-08-30T06:43:25.863Z,15.872803
2022-08-30T06:46:51.100Z,15.872803
2022-08-30T06:50:16.195Z,15.923157
2022-08-30T06:53:41.366Z,15.933228
2022-08-30T06:57:06.532Z,16.003723
2022-08-30T07:00:31.710Z,16.003723
2022-08-30T07:03:56.884Z,16.023865
2022-08-30T07:07:22.071Z,16.044006
2022-08-30T07:10:47.258Z,16.08429
2022-08-30T07:14:12.472Z,16.114502
2022-08-30T07:17:37.655Z,16.154785
2022-08-30T07:21:02.835Z,16.195068
2022-08-30T07:24:28.013Z,16.245422
2022-08-30T07:27:53.185Z,16.305847
2022-08-30T07:31:18.370Z,16.376343
2022-08-30T07:34:43.544Z,16.426697
2022-08-30T07:38:08.723Z,16.446838
2022-08-30T07:41:33.900Z,16.497192
2022-08-30T07:44:59.046Z,16.567688
2022-08-30T07:48:24.236Z,16.628113
2022-08-30T07:51:49.449Z,16.678467
2022-08-30T07:55:14.636Z,16.748962
2022-08-30T07:58:40.305Z,16.759033
2022-08-30T08:02:05.559Z,16.819458
2022-08-30T08:05:30.661Z,16.889954
2022-08-30T08:08:55.837Z,16.910095
2022-08-30T08:12:20.998Z,16.960449
2022-08-30T08:15:46.211Z,17.030945
2022-08-30T08:19:11.366Z,17.041016
2022-08-30T08:22:39.830Z,17.192078
2022-08-30T08:26:01.744Z,17.232361
2022-08-30T08:29:26.918Z,17.333069
2022-08-30T08:32:52.094Z,17.413635
2022-08-30T08:36:17.262Z,17.494202
2022-08-30T08:39:42.428Z,17.554626
2022-08-30T08:43:07.626Z,17.59491
2022-08-30T08:46:32.908Z,17.776184
2022-08-30T08:49:57.964Z,17.776184
2022-08-30T08:53:44.678Z,17.776184
2022-08-30T08:56:48.362Z,17.776184
2022-08-30T09:00:13.541Z,17.836609
2022-08-30T09:03:38.724Z,17.897034
2022-08-30T09:07:03.902Z,17.957458
2022-08-30T09:10:47.430Z,17.997742
2022-08-30T09:13:54.243Z,18.118591
2022-08-30T09:17:19.408Z,18.22937
2022-08-30T09:20:44.646Z,18.320007
2022-08-30T09:24:09.815Z,18.390503
2022-08-30T09:27:34.985Z,18.541565
2022-08-30T09:31:00.245Z,18.632202
2022-08-30T09:34:25.417Z,18.763123
2022-08-30T09:37:50.580Z,18.904114
2022-08-30T09:41:15.745Z,19.004822
2022-08-30T09:44:40.921Z,19.095459
2022-08-30T09:48:06.143Z,19.216309
2022-08-30T09:51:31.390Z,19.3573
2022-08-30T09:54:56.623Z,19.458008
2022-08-30T09:58:22.296Z,19.498291
2022-08-30T10:01:47.129Z,19.558716
2022-08-30T10:05:12.345Z,19.558716
2022-08-30T10:08:37.582Z,19.619141
2022-08-30T10:12:02.815Z,19.629211
2022-08-30T10:15:28.069Z,19.679565
2022-08-30T10:18:53.283Z,19.709778
2022-08-30T10:22:18.531Z,19.840698
2022-08-30T10:25:43.790Z,19.921265
2022-08-30T10:29:09.017Z,20.11261
2022-08-30T10:32:34.231Z,20.233459
2022-08-30T10:35:59.501Z,20.293884
2022-08-30T10:39:24.729Z,20.293884
2022-08-30T10:42:49.965Z,20.354309
2022-08-30T10:46:15.217Z,20.394592
2022-08-30T10:49:40.796Z,20.424805
2022-08-30T10:53:05.721Z,20.465088
2022-08-30T10:56:30.971Z,20.535583
2022-08-30T10:59:56.193Z,20.545654
2022-08-30T11:03:21.424Z,20.606079
2022-08-30T11:06:46.646Z,20.656433
2022-08-30T11:10:11.899Z,20.666504
2022-08-30T11:13:37.108Z,20.686646
2022-08-30T11:17:02.338Z,20.656433
2022-08-30T11:20:27.579Z,20.636292
2022-08-30T11:23:52.826Z,20.636292
2022-08-30T11:27:18.066Z,20.606079
2022-08-30T11:30:43.287Z,20.686646
2022-08-30T11:34:08.530Z,20.757141
2022-08-30T11:37:33.764Z,20.797424
2022-08-30T11:40:59.023Z,20.86792
2022-08-30T11:44:24.237Z,20.86792
2022-08-30T11:47:49.463Z,20.847778
2022-08-30T11:51:14.696Z,20.767212
2022-08-30T11:54:39.935Z,20.767212
2022-08-30T11:58:05.178Z,20.767212
2022-08-30T12:01:50.425Z,20.847778
2022-08-30T12:04:55.907Z,20.797424
2022-08-30T12:08:24.284Z,20.757141
2022-08-30T12:11:46.661Z,20.797424
2022-08-30T12:15:11.875Z,20.757141
2022-08-30T12:18:37.099Z,20.817566
2022-08-30T12:22:02.693Z,20.787354
2022-08-30T12:25:27.941Z,20.787354
2022-08-30T12:28:53.183Z,20.797424
2022-08-30T12:32:18.436Z,20.86792
2022-08-30T12:35:43.674Z,20.847778
2022-08-30T12:39:08.921Z,20.918274
2022-08-30T12:42:34.163Z,20.968628
2022-08-30T12:46:01.001Z,21.059265
2022-08-30T12:49:24.632Z,21.069336
2022-08-30T12:52:49.860Z,21.11969
2022-08-30T12:56:15.092Z,21.089478
2022-08-30T12:59:40.326Z,21.089478
2022-08-30T13:03:23.060Z,21.089478
2022-08-30T13:06:30.792Z,21.11969
2022-08-30T13:09:56.028Z,21.190186
2022-08-30T13:13:21.273Z,21.129761
2022-08-30T13:16:46.610Z,21.059265
2022-08-30T13:20:11.759Z,20.948486
2022-08-30T13:23:36.992Z,20.767212
2022-08-30T13:27:02.216Z,20.696716
2022-08-30T13:30:27.474Z,20.565796
2022-08-30T13:33:52.715Z,20.515442
2022-08-30T13:40:43.330Z,20.465088
2022-08-30T13:44:11.085Z,20.545654
2022-08-30T13:47:34.671Z,20.666504
2022-08-30T13:50:58.984Z,20.686646
2022-08-30T13:54:24.211Z,20.716858
2022-08-30T13:57:57.487Z,20.606079
2022-08-30T14:01:14.826Z,20.565796
2022-08-30T14:04:40.036Z,20.535583
2022-08-30T14:08:05.900Z,20.545654
2022-08-30T14:11:30.435Z,20.606079
2022-08-30T14:14:59.361Z,20.666504
2022-08-30T14:18:21.066Z,20.716858
2022-08-30T14:21:46.656Z,20.726929
2022-08-30T14:25:11.401Z,20.757141
2022-08-30T14:28:36.646Z,20.797424
2022-08-30T15:04:49.626Z,20.726929
2022-08-30T15:08:12.811Z,20.696716
2022-08-30T15:11:38.029Z,20.666504
2022-08-30T15:15:03.270Z,20.656433
2022-08-30T15:18:28.523Z,20.666504
2022-08-30T15:21:53.754Z,20.656433
2022-08-30T15:25:19.018Z,20.656433
2022-08-30T15:28:44.255Z,20.61615
2022-08-30T15:32:09.460Z,20.585938
2022-08-30T15:35:34.691Z,20.505371
2022-08-30T15:38:59.937Z,20.465088
2022-08-30T15:42:25.218Z,20.394592
2022-08-30T15:45:50.451Z,20.394592
2022-08-30T15:49:15.730Z,20.394592
2022-08-30T15:52:40.945Z,20.414734
2022-08-30T15:56:06.194Z,20.384521
2022-08-30T15:59:31.453Z,20.394592
2022-08-30T16:02:56.679Z,20.334167
2022-08-30T16:06:21.907Z,20.314026
2022-08-30T16:09:47.135Z,20.314026
2022-08-30T16:13:12.408Z,20.354309
2022-08-30T16:16:37.833Z,20.283813
2022-08-30T16:20:02.896Z,20.213318
2022-08-30T16:23:28.134Z,20.183105
2022-08-30T16:26:53.357Z,20.102539
2022-08-30T16:30:18.596Z,20.062256
2022-08-30T16:33:44.810Z,20.011902
2022-08-30T16:37:09.064Z,19.981689
2022-08-30T16:40:34.379Z,19.951477
2022-08-30T16:43:59.561Z,19.911194
2022-08-30T16:47:24.860Z,19.870911
2022-08-30T16:50:50.051Z,19.830627
2022-08-30T16:54:15.267Z,19.780273
2022-08-30T16:57:40.503Z,19.770203
2022-08-30T17:01:05.891Z,19.729919
2022-08-30T17:04:31.107Z,19.709778
2022-08-30T17:07:56.333Z,19.659424
2022-08-30T17:11:21.580Z,19.619141
2022-08-30T17:14:47.391Z,19.558716
2022-08-30T17:18:12.071Z,19.508362
2022-08-30T17:21:38.781Z,19.458008
2022-08-30T17:25:02.624Z,19.427795
2022-08-30T17:28:27.940Z,19.317017
2022-08-30T17:31:53.302Z,19.276733
2022-08-30T17:35:18.552Z,19.186096
2022-08-30T17:38:44.928Z,19.10553
2022-08-30T17:42:09.148Z,19.095459
2022-08-30T17:45:34.457Z,19.004822
2022-08-30T17:49:01.138Z,18.98468
2022-08-30T17:52:25.018Z,18.924255
2022-08-30T17:55:50.284Z,18.904114
2022-08-30T17:59:15.592Z,18.883972
2022-08-30T18:02:41.009Z,18.803406
2022-08-30T18:06:06.213Z,18.753052
2022-08-30T18:09:33.996Z,18.692627
2022-08-30T18:12:56.846Z,18.632202
2022-08-30T18:16:26.145Z,18.632202
2022-08-30T18:19:47.523Z,18.521423
2022-08-30T18:23:12.791Z,18.48114
2022-08-30T18:26:38.183Z,18.410645
2022-08-30T18:30:03.511Z,18.370361
2022-08-30T18:33:28.844Z,18.330078
2022-08-30T18:36:54.196Z,18.320007
2022-08-30T18:40:19.552Z,18.269653
2022-08-30T18:43:44.964Z,18.22937
2022-08-30T18:47:10.083Z,18.179016
2022-08-30T18:50:35.437Z,18.148804
2022-08-30T18:54:00.790Z,18.078308
2022-08-30T18:57:28.210Z,18.027954
2022-08-30T19:01:04.441Z,17.987671
2022-08-30T19:04:35.316Z,17.927246
2022-08-30T19:08:07.345Z,17.897034
2022-08-30T19:11:32.645Z,17.85675
2022-08-30T19:14:57.933Z,17.776184
2022-08-30T19:18:23.227Z,17.715759
2022-08-30T19:21:48.533Z,17.695618
2022-08-30T19:25:13.822Z,17.695618
2022-08-30T19:28:39.118Z,17.675476
2022-08-30T19:32:04.449Z,17.635193
2022-08-30T19:35:30.030Z,17.564697
2022-08-30T19:38:55.396Z,17.554626
2022-08-30T19:42:20.222Z,17.484131
2022-08-30T19:45:45.523Z,17.443848
2022-08-30T19:49:10.765Z,17.433777
2022-08-30T19:52:35.995Z,17.383423
2022-08-30T19:56:01.217Z,17.363281
2022-08-30T19:59:26.458Z,17.333069
2022-08-30T20:02:52.022Z,17.282715
2022-08-30T20:06:16.944Z,17.262573
2022-08-30T20:09:42.192Z,17.252502
2022-08-30T20:13:07.430Z,17.212219
2022-08-30T20:16:37.271Z,17.161865
2022-08-30T20:19:57.928Z,17.151794
2022-08-30T20:23:23.321Z,17.081299
2022-08-30T20:26:48.418Z,17.081299
2022-08-30T20:30:13.628Z,17.010803
2022-08-30T20:33:38.871Z,16.97052
2022-08-30T20:37:04.099Z,16.940308
2022-08-30T20:40:29.399Z,16.940308
2022-08-30T20:43:54.604Z,16.910095
2022-08-30T20:47:19.842Z,16.889954
2022-08-30T20:50:45.060Z,16.829529
2022-08-30T20:54:10.303Z,16.809387
2022-08-30T20:57:35.539Z,16.759033
2022-08-30T21:01:00.825Z,16.698608
2022-08-30T21:04:26.010Z,16.668396
2022-08-30T21:07:51.241Z,16.678467
2022-08-30T21:11:16.509Z,16.668396
2022-08-30T21:14:41.718Z,16.638184
2022-08-30T21:18:06.976Z,16.628113
2022-08-30T21:21:32.206Z,16.607971
2022-08-30T21:24:57.439Z,16.5979
2022-08-30T21:28:22.692Z,16.5979
2022-08-30T21:31:47.928Z,16.577759
2022-08-30T21:35:13.154Z,16.567688
2022-08-30T21:38:38.366Z,16.517334
2022-08-30T21:42:03.615Z,16.517334
2022-08-30T21:45:28.867Z,16.487122
2022-08-30T21:48:54.109Z,16.477051
2022-08-30T21:52:19.360Z,16.426697
2022-08-30T21:55:44.591Z,16.376343
2022-08-30T21:59:09.812Z,16.325989
2022-08-30T22:02:35.072Z,16.33606
2022-08-30T22:06:00.265Z,16.325989
2022-08-30T22:09:25.491Z,16.305847
2022-08-30T22:12:50.763Z,16.295776
2022-08-30T22:16:16.039Z,16.295776
2022-08-30T22:19:41.203Z,16.275635
2022-08-30T22:23:06.423Z,16.265564
2022-08-30T22:26:31.665Z,16.245422
2022-08-30T22:29:56.899Z,16.225281
2022-08-30T22:33:22.116Z,16.235352
2022-08-30T22:36:47.334Z,16.235352
2022-08-30T22:40:12.599Z,16.205139
2022-08-30T22:43:37.812Z,16.225281
2022-08-30T22:47:03.023Z,16.195068
2022-08-30T22:50:28.268Z,16.205139
2022-08-30T22:53:53.489Z,16.174927
2022-08-30T22:57:18.740Z,16.195068
2022-08-30T23:00:49.710Z,16.174927
2022-08-30T23:04:09.147Z,16.144714
2022-08-30T23:07:34.384Z,16.114502
2022-08-30T23:10:59.631Z,16.124573
2022-08-30T23:14:24.871Z,16.114502
2022-08-30T23:17:50.061Z,16.054077
2022-08-30T23:21:15.297Z,16.044006
2022-08-30T23:24:40.539Z,16.023865
2022-08-30T23:28:05.762Z,16.054077
2022-08-30T23:31:31.058Z,16.054077
2022-08-30T23:34:56.232Z,16.074219
2022-08-30T23:38:21.475Z,16.054077
2022-08-30T23:41:46.672Z,16.054077
2022-08-30T23:45:11.934Z,16.054077
2022-08-30T23:48:37.184Z,16.023865
2022-08-30T23:52:02.385Z,16.003723
2022-08-30T23:55:27.588Z,15.973511
2022-08-30T23:58:52.824Z,15.933228
